Time;durP1;ratioP1;P1;durP2;ratioP2;P2;SDS_P1;SDS_P2;PMS_P1;PMS_P2;Temp;Humidity;BMP_temperature;BMP_pressure;BME280_temperature;BME280_humidity;BME280_pressure;Samples;Min_cycle;Max_cycle;Signal;HPM_P1;HPM_P2
2021/12/16 00:10:41;;;;;;;6.80;4.28;;;;;;;7.02;70.21;99260.72;9858248;30;20048;-81
2021/12/16 00:38:33;;;;;;;6.13;4.13;;;;;;;6.89;70.77;99241.28;9841579;30;20048;-83
2021/12/16 00:44:04;;;;;;;6.50;4.75;;;;;;;6.88;70.96;99248.13;9852908;30;20553;-81
2021/12/16 00:54:58;;;;;;;7.03;4.85;;;;;;;6.83;70.83;99238.59;9854946;30;20128;-82
2021/12/16 01:00:20;;;;;;;6.55;5.00;;;;;;;6.80;71.11;99238.94;9841580;30;20108;-82
2021/12/16 01:06:36;;;;;;;6.03;4.00;;;;;;;6.76;71.08;99244.06;9852528;30;20048;-82
2021/12/16 01:50:53;;;;;;;5.45;3.97;;;;;;;6.72;71.28;99235.31;9850187;30;20044;-82
2021/12/16 01:56:38;;;;;;;5.85;4.45;;;;;;;6.73;71.14;99223.66;9827374;30;20048;-82
2021/12/16 02:02:11;;;;;;;6.53;4.82;;;;;;;6.75;71.26;99225.91;9842439;30;20063;-82
2021/12/16 02:07:56;;;;;;;7.15;4.75;;;;;;;6.74;71.15;99213.31;9839912;30;20044;-82
2021/12/16 02:13:39;;;;;;;6.82;4.22;;;;;;;6.75;71.23;99223.88;9840360;30;20056;-82
2021/12/16 02:41:43;;;;;;;5.35;3.83;;;;;;;6.70;71.28;99230.28;9850726;30;20052;-83
2021/12/16 02:52:49;;;;;;;5.82;4.43;;;;;;;6.69;71.32;99228.81;9851775;30;20058;-82
2021/12/16 02:58:10;;;;;;;4.97;4.07;;;;;;;6.68;71.41;99229.34;9837353;30;20060;-82
2021/12/16 03:03:34;;;;;;;6.53;4.53;;;;;;;6.69;71.75;99239.16;9831219;30;20447;-82
2021/12/16 03:08:55;;;;;;;5.65;4.03;;;;;;;6.73;71.20;99234.03;9838709;30;20056;-82
2021/12/16 03:14:25;;;;;;;6.40;4.70;;;;;;;6.73;71.65;99234.03;9837721;30;20127;-81
2021/12/16 03:36:30;;;;;;;6.22;4.25;;;;;;;6.74;70.99;99241.06;9851595;30;20055;-82
2021/12/16 03:41:52;;;;;;;4.53;3.72;;;;;;;6.73;71.15;99223.66;9848541;30;20139;-82
2021/12/16 03:47:13;;;;;;;5.18;4.00;;;;;;;6.78;70.95;99241.50;9838702;30;20123;-82
2021/12/16 03:52:35;;;;;;;6.50;4.80;;;;;;;6.76;71.46;99246.84;9840371;30;20116;-81
2021/12/16 03:57:56;;;;;;;5.45;4.25;;;;;;;6.75;71.16;99248.09;9845959;30;20056;-82
2021/12/16 04:03:21;;;;;;;7.05;4.25;;;;;;;6.77;71.21;99248.34;9841546;30;20068;-82
2021/12/16 04:08:44;;;;;;;7.90;4.00;;;;;;;6.74;70.90;99246.63;9837151;30;20063;-81
2021/12/16 04:14:14;;;;;;;5.20;3.90;;;;;;;6.73;71.06;99243.09;9844201;30;20574;-81
2021/12/16 04:19:39;;;;;;;5.22;4.15;;;;;;;6.73;70.95;99247.91;9811121;30;20032;-82
2021/12/16 04:25:03;;;;;;;7.05;4.50;;;;;;;6.72;71.15;99251.94;9827073;30;20060;-82
2021/12/16 04:30:26;;;;;;;5.82;4.28;;;;;;;6.73;71.14;99245.88;9823319;30;20078;-82
2021/12/16 04:35:48;;;;;;;7.97;4.78;;;;;;;6.72;71.28;99260.28;9815435;30;20044;-80
2021/12/16 04:41:11;;;;;;;7.05;4.40;;;;;;;6.75;71.30;99265.50;9821481;30;20074;-82
2021/12/16 04:46:34;;;;;;;6.55;4.60;;;;;;;6.76;70.91;99255.19;9814479;30;20049;-81
2021/12/16 04:51:58;;;;;;;8.45;4.50;;;;;;;6.81;71.13;99257.09;9799609;30;20074;-81
2021/12/16 04:57:19;;;;;;;7.20;4.18;;;;;;;6.78;71.04;99261.69;9806102;30;20095;-82
2021/12/16 05:02:41;;;;;;;7.40;4.20;;;;;;;6.79;70.97;99267.97;9804702;30;20059;-82
2021/12/16 05:08:09;;;;;;;6.35;4.32;;;;;;;6.79;70.77;99273.53;9809477;30;20053;-81
2021/12/16 05:13:35;;;;;;;7.93;4.53;;;;;;;6.81;70.90;99273.75;9800305;30;20048;-81
2021/12/16 05:18:58;;;;;;;5.45;3.88;;;;;;;6.85;70.43;99274.16;9784843;30;20056;-81
2021/12/16 05:24:25;;;;;;;6.65;4.30;;;;;;;6.86;70.83;99275.69;9778721;30;20053;-81
2021/12/16 05:29:51;;;;;;;6.88;4.20;;;;;;;6.84;70.64;99278.22;9787860;30;20064;-81
2021/12/16 05:35:15;;;;;;;5.68;4.10;;;;;;;6.84;70.62;99283.78;9777747;30;20059;-81
2021/12/16 05:40:38;;;;;;;5.32;3.80;;;;;;;6.81;70.60;99291.13;9795570;30;20411;-81
2021/12/16 05:46:18;;;;;;;8.32;5.25;;;;;;;6.83;70.74;99293.38;9834265;30;20072;-82
2021/12/16 05:51:42;;;;;;;7.78;4.85;;;;;;;6.88;70.55;99295.31;9835744;30;20052;-81
2021/12/16 05:57:03;;;;;;;6.43;4.85;;;;;;;6.92;70.41;99284.63;9834101;30;20092;-82
2021/12/16 06:02:24;;;;;;;11.10;7.00;;;;;;;6.92;70.12;99290.19;9824580;30;20131;-80
2021/12/16 06:07:46;;;;;;;10.23;7.10;;;;;;;6.92;70.32;99304.06;9819052;30;20396;-81
2021/12/16 06:13:07;;;;;;;7.55;5.50;;;;;;;6.96;70.26;99293.41;9821160;30;20498;-81
2021/12/16 06:30:09;;;;;;;7.43;5.45;;;;;;;6.94;69.80;99309.81;9760836;30;20061;-81
2021/12/16 06:35:31;;;;;;;9.88;6.47;;;;;;;6.97;69.96;99311.56;9807514;30;20052;-81
2021/12/16 06:40:56;;;;;;;8.13;4.90;;;;;;;7.00;69.93;99312.50;9820650;30;20094;-81
2021/12/16 06:46:39;;;;;;;7.50;5.22;;;;;;;6.99;69.54;99311.75;9835874;30;20071;-80
2021/12/16 06:52:04;;;;;;;7.18;5.20;;;;;;;7.00;69.46;99318.81;9821326;30;20040;-80
2021/12/16 06:57:38;;;;;;;6.82;4.72;;;;;;;7.03;69.59;99322.53;9831460;30;20088;-82
2021/12/16 07:03:01;;;;;;;7.55;5.10;;;;;;;7.02;69.23;99321.78;9820922;30;20047;-81
2021/12/16 07:08:23;;;;;;;;;;;;;;;7.06;69.18;99332.59;9833537;30;20070;-81
2021/12/16 07:13:56;;;;;;;8.45;5.25;;;;;;;7.08;69.62;99339.13;9821026;30;19922;-81
2021/12/16 07:19:17;;;;;;;8.05;4.55;;;;;;;7.12;69.40;99347.88;9833969;30;20174;-81
2021/12/16 07:24:38;;;;;;;6.90;5.10;;;;;;;7.13;69.04;99354.91;9826983;30;20048;-81
2021/12/16 07:29:59;;;;;;;6.95;4.10;;;;;;;7.16;68.94;99353.13;9840114;30;20127;-81
2021/12/16 07:35:22;;;;;;;5.88;4.15;;;;;;;7.23;68.89;99346.91;9827726;30;20054;-80
2021/12/16 07:40:44;;;;;;;6.45;4.22;;;;;;;7.24;68.87;99348.41;9826393;30;20055;-81
2021/12/16 07:46:05;;;;;;;7.15;4.85;;;;;;;7.26;68.82;99343.06;9837870;30;20055;-81
2021/12/16 07:51:26;;;;;;;7.78;4.35;;;;;;;7.32;68.59;99365.91;9826792;30;20044;-81
2021/12/16 07:56:48;;;;;;;6.80;4.35;;;;;;;7.35;68.53;99364.13;9840908;30;20055;-81
2021/12/16 08:02:11;;;;;;;5.97;4.38;;;;;;;7.40;68.97;99366.78;9840167;30;20048;-81
2021/12/16 08:07:32;;;;;;;6.70;5.28;;;;;;;7.45;69.00;99373.53;9839429;30;20056;-81
2021/12/16 08:12:53;;;;;;;7.22;5.68;;;;;;;7.46;69.43;99381.31;9828653;30;20047;-81
2021/12/16 08:18:14;;;;;;;8.90;6.05;;;;;;;7.43;69.59;99382.41;9841489;30;20074;-81
2021/12/16 08:23:35;;;;;;;8.48;5.97;;;;;;;7.42;69.57;99388.47;9828388;30;20052;-81
2021/12/16 08:28:56;;;;;;;10.02;6.47;;;;;;;7.42;69.63;99385.69;9827494;30;20048;-81
2021/12/16 08:34:18;;;;;;;9.18;6.47;;;;;;;7.45;69.59;99382.59;9812880;30;20058;-80
2021/12/16 08:39:39;;;;;;;10.60;6.63;;;;;;;7.45;69.55;99390.94;9860576;30;20056;-81
2021/12/16 08:45:00;;;;;;;9.40;6.13;;;;;;;7.56;69.40;99389.22;9840098;30;20116;-81
2021/12/16 08:50:23;;;;;;;9.18;6.82;;;;;;;7.65;69.13;99392.31;9828221;30;20045;-81
2021/12/16 08:55:45;;;;;;;9.00;6.27;;;;;;;7.74;68.95;99378.00;9838771;30;20052;-81
2021/12/16 09:01:27;;;;;;;11.00;6.68;;;;;;;7.82;69.24;99385.69;9826340;30;20067;-81
2021/12/16 09:06:49;;;;;;;9.90;6.97;;;;;;;8.02;68.47;99404.47;9839796;30;20048;-81
2021/12/16 09:12:36;;;;;;;9.13;7.00;;;;;;;8.15;68.30;99400.91;9826062;30;20052;-81
2021/12/16 09:17:55;;;;;;;11.57;7.20;;;;;;;8.12;68.52;99411.09;9844421;30;20048;-81
2021/12/16 09:23:15;;;;;;;10.73;7.15;;;;;;;8.16;68.59;99411.50;9834340;30;20044;-81
2021/12/16 09:28:36;;;;;;;8.55;6.63;;;;;;;8.32;68.64;99407.59;9849765;30;20045;-81
2021/12/16 09:34:04;;;;;;;12.05;6.72;;;;;;;8.38;68.88;99412.31;9846970;30;20063;-81
2021/12/16 09:39:26;;;;;;;10.85;7.10;;;;;;;8.27;69.05;99419.59;9846197;30;20059;-81
2021/12/16 09:44:47;;;;;;;9.38;7.07;;;;;;;8.27;69.38;99422.38;9853536;30;20078;-81
2021/12/16 09:50:08;;;;;;;9.60;7.45;;;;;;;8.37;69.12;99408.78;9841164;30;20096;-81
2021/12/16 09:55:29;;;;;;;11.23;7.60;;;;;;;8.50;69.44;99403.19;9843291;30;20058;-81
2021/12/16 10:00:53;;;;;;;10.95;7.15;;;;;;;8.67;69.36;99405.56;9844154;30;20064;-81
2021/12/16 10:06:14;;;;;;;11.75;7.65;;;;;;;8.75;68.95;99392.47;9840800;30;20048;-81
2021/12/16 10:11:36;;;;;;;9.30;7.22;;;;;;;8.98;68.81;99394.72;9838372;30;20059;-81
2021/12/16 10:22:39;;;;;;;11.13;7.38;;;;;;;9.82;67.43;99378.50;9838945;30;20056;-80
2021/12/16 10:28:08;;;;;;;10.88;7.70;;;;;;;9.50;67.34;99374.06;9823261;30;20056;-79
2021/12/16 10:33:31;;;;;;;12.52;7.97;;;;;;;9.32;67.81;99367.47;9810660;30;20048;-80
2021/12/16 10:38:54;;;;;;;11.07;8.15;;;;;;;9.50;67.91;99373.31;9822639;30;20052;-80
2021/12/16 10:44:27;;;;;;;10.70;7.55;;;;;;;9.46;67.41;99366.06;9822563;30;20048;-80
2021/12/16 10:49:51;;;;;;;10.68;7.63;;;;;;;9.34;67.27;99364.88;9812205;30;20055;-79
2021/12/16 10:55:12;;;;;;;;;;;;;;;9.34;67.03;99366.91;9810226;30;20397;-79
2021/12/16 11:00:32;;;;;;;11.00;7.70;;;;;;;9.33;67.16;99360.59;9810140;30;19976;-80
2021/12/16 11:05:53;;;;;;;11.63;8.02;;;;;;;9.26;67.67;99374.47;9814539;30;20063;-81
2021/12/16 11:11:15;;;;;;;10.43;7.25;;;;;;;9.55;67.47;99372.41;9820517;30;20063;-81
2021/12/16 11:16:36;;;;;;;12.50;7.18;;;;;;;9.58;66.96;99377.66;9826440;30;20049;-81
2021/12/16 11:22:03;;;;;;;12.20;7.90;;;;;;;9.49;66.76;99383.72;9825224;30;20051;-81
2021/12/16 11:27:33;;;;;;;11.02;7.20;;;;;;;9.73;66.82;99388.13;9811272;30;20067;-80
2021/12/16 11:33:02;;;;;;;12.43;7.95;;;;;;;10.00;66.40;99378.22;9814710;30;20052;-80
2021/12/16 11:38:49;;;;;;;12.88;8.23;;;;;;;9.81;66.44;99369.38;9815658;30;20052;-80
2021/12/16 11:44:18;;;;;;;11.15;7.38;;;;;;;9.63;66.45;99362.06;9825868;30;20508;-80
2021/12/16 11:50:05;;;;;;;11.15;7.75;;;;;;;9.19;66.81;99367.56;9824294;30;20059;-80
2021/12/16 11:55:34;;;;;;;12.88;8.52;;;;;;;9.17;67.14;99353.44;9816244;30;20052;-80
2021/12/16 12:00:55;;;;;;;13.45;9.05;;;;;;;9.30;66.99;99363.72;9822835;30;20060;-80
2021/12/16 12:06:25;;;;;;;13.55;8.73;;;;;;;9.15;67.23;99356.00;9824349;30;20076;-80
2021/12/16 12:11:46;;;;;;;12.75;9.25;;;;;;;9.23;67.06;99359.59;9830407;30;20052;-80
2021/12/16 12:17:19;;;;;;;12.27;9.20;;;;;;;9.48;67.10;99359.94;9829228;30;20044;-80
2021/12/16 12:22:40;;;;;;;11.77;8.90;;;;;;;9.70;66.39;99364.88;9817235;30;20052;-80
2021/12/16 12:28:00;;;;;;;10.48;7.80;;;;;;;9.66;66.49;99370.06;9818244;30;20056;-80
2021/12/16 12:33:21;;;;;;;14.88;8.65;;;;;;;9.72;66.21;99345.56;9817989;30;20480;-80
2021/12/16 12:38:41;;;;;;;12.73;8.90;;;;;;;10.47;66.50;99343.56;9804544;30;20055;-81
2021/12/16 12:44:04;;;;;;;11.52;7.97;;;;;;;11.67;64.09;99345.28;9846639;30;20063;-82
2021/12/16 12:49:26;;;;;;;13.43;8.35;;;;;;;11.72;63.37;99352.75;9847687;30;20106;-82
2021/12/16 12:54:59;;;;;;;11.98;7.72;;;;;;;11.24;63.49;99357.53;9832755;30;20056;-82
2021/12/16 13:00:30;;;;;;;11.55;7.68;;;;;;;10.67;64.37;99352.34;9830645;30;20068;-82
2021/12/16 13:05:59;;;;;;;10.38;7.50;;;;;;;10.25;64.40;99369.41;9817878;30;20413;-82
2021/12/16 13:11:29;;;;;;;10.02;6.65;;;;;;;10.00;64.88;99371.88;9842467;30;20075;-79
2021/12/16 13:28:13;;;;;;;10.57;6.57;;;;;;;9.45;65.32;99395.22;9814727;30;20194;-79
2021/12/16 13:33:42;;;;;;;8.15;5.97;;;;;;;9.35;65.80;99408.16;9801422;30;20063;-79
2021/12/16 13:39:03;;;;;;;10.65;6.47;;;;;;;9.28;65.77;99419.28;9801669;30;20126;-80
2021/12/16 13:44:48;;;;;;;9.15;5.28;;;;;;;9.19;66.10;99420.50;9813089;30;20052;-80
2021/12/16 14:07:57;;;;;;;7.45;4.45;;;;;;;9.10;66.73;99415.41;9831717;30;20373;-80
2021/12/16 14:42:23;;;;;;;5.63;2.90;;;;;;;8.94;66.75;99430.50;9823073;30;20127;-78
2021/12/16 14:53:27;;;;;;;5.00;2.97;;;;;;;8.87;67.43;99437.47;9823371;30;20082;-79
2021/12/16 14:58:52;;;;;;;4.07;2.53;;;;;;;8.86;67.36;99442.31;9822675;30;20064;-78
2021/12/16 15:04:18;;;;;;;4.22;2.58;;;;;;;8.83;67.35;99437.84;9826527;30;20488;-80
2021/12/16 15:09:40;;;;;;;6.13;2.58;;;;;;;8.83;67.21;99454.53;9814338;30;20068;-78
2021/12/16 15:15:24;;;;;;;3.47;2.15;;;;;;;8.82;67.57;99453.03;9801606;30;20098;-78
2021/12/16 15:43:22;;;;;;;2.17;1.05;;;;;;;8.72;67.48;99495.81;9819452;30;20052;-77
2021/12/16 15:48:46;;;;;;;3.70;1.55;;;;;;;8.68;67.52;99490.56;9831818;30;20113;-78
2021/12/16 15:54:10;;;;;;;1.88;1.35;;;;;;;8.66;67.53;99482.00;9817368;30;20052;-78
2021/12/16 15:59:31;;;;;;;2.80;1.57;;;;;;;8.66;67.61;99490.38;9819163;30;20056;-77
2021/12/16 16:04:51;;;;;;;4.20;1.58;;;;;;;8.65;67.93;99491.66;9819587;30;20769;-77
2021/12/16 16:10:15;;;;;;;3.67;1.70;;;;;;;8.67;67.54;99491.84;9817528;30;20052;-78
2021/12/16 16:15:35;;;;;;;3.67;1.70;;;;;;;8.66;67.64;99506.31;9817406;30;20048;-78
2021/12/16 16:21:18;;;;;;;4.97;2.17;;;;;;;8.65;67.84;99505.56;9815297;30;20052;-78
2021/12/16 16:26:39;;;;;;;6.18;1.80;;;;;;;8.59;67.82;99508.50;9828211;30;20481;-78
2021/12/16 16:32:01;;;;;;;3.42;1.80;;;;;;;8.55;68.05;99507.31;9843316;30;20063;-78
2021/12/16 16:37:28;;;;;;;3.60;1.70;;;;;;;8.53;68.05;99512.69;9816346;30;20052;-79
2021/12/16 16:42:48;;;;;;;4.55;1.83;;;;;;;8.49;68.10;99509.47;9816352;30;20044;-78
2021/12/16 16:48:28;;;;;;;4.97;1.60;;;;;;;8.48;67.98;99524.66;9815533;30;20056;-78
2021/12/16 16:54:20;;;;;;;5.10;3.50;;;;;;;8.51;67.96;99520.81;9813997;30;20051;-78
2021/12/16 16:59:51;;;;;;;2.92;1.65;;;;;;;8.48;68.49;99507.97;9822621;30;20056;-78
2021/12/16 17:05:21;;;;;;;3.25;1.67;;;;;;;8.48;68.09;99505.94;9836225;30;20071;-82
2021/12/16 17:10:54;;;;;;;2.83;2.00;;;;;;;8.48;68.28;99516.31;9811381;30;20052;-78
2021/12/16 17:21:41;;;;;;;2.63;1.70;;;;;;;8.36;68.42;99513.03;9812517;30;20071;-77
2021/12/16 17:27:07;;;;;;;3.45;2.20;;;;;;;8.26;68.23;99521.03;9823717;30;20045;-78
2021/12/16 17:32:30;;;;;;;4.43;2.22;;;;;;;8.10;68.20;99522.09;9811338;30;20412;-78
2021/12/16 17:38:00;;;;;;;2.50;1.95;;;;;;;7.87;68.81;99512.72;9812914;30;20412;-80
2021/12/16 17:43:40;;;;;;;3.30;1.67;;;;;;;7.73;69.24;99523.81;9800150;30;20052;-80
2021/12/16 17:49:02;;;;;;;2.78;1.55;;;;;;;7.75;69.12;99518.47;9816753;30;20527;-80
2021/12/16 17:54:22;;;;;;;2.50;1.65;;;;;;;7.77;69.40;99536.66;9813728;30;20128;-81
2021/12/16 17:59:43;;;;;;;3.20;1.60;;;;;;;7.81;69.43;99539.84;9823361;30;20063;-82
2021/12/16 18:05:04;;;;;;;5.07;1.60;;;;;;;7.90;69.27;99556.13;9814706;30;20056;-80
2021/12/16 18:10:27;;;;;;;2.60;1.60;;;;;;;7.99;69.10;99569.59;9815587;30;20052;-80
2021/12/16 18:15:55;;;;;;;3.00;1.50;;;;;;;8.07;69.21;99567.69;9818668;30;20063;-81
2021/12/16 18:21:18;;;;;;;3.13;1.70;;;;;;;8.11;68.93;99579.25;9803985;30;20049;-81
2021/12/16 18:26:40;;;;;;;2.15;1.30;;;;;;;8.14;68.95;99592.09;9818002;30;20040;-81
2021/12/16 18:32:01;;;;;;;3.13;1.80;;;;;;;8.20;68.92;99594.75;9792423;30;20056;-81
2021/12/16 18:37:22;;;;;;;4.60;1.90;;;;;;;8.24;68.96;99597.97;9803750;30;20071;-81
2021/12/16 18:42:43;;;;;;;4.18;2.03;;;;;;;8.22;69.22;99598.53;9791034;30;20491;-81
2021/12/16 18:48:29;;;;;;;4.25;2.00;;;;;;;8.22;68.97;99604.09;9792135;30;20052;-81
2021/12/16 18:59:33;;;;;;;3.72;1.67;;;;;;;8.18;69.11;99608.44;9784749;30;20060;-78
2021/12/16 19:04:55;;;;;;;3.50;1.45;;;;;;;8.18;69.40;99611.97;9782703;30;20071;-79
2021/12/16 19:10:17;;;;;;;3.22;1.58;;;;;;;8.20;69.33;99617.78;9797581;30;20416;-78
2021/12/16 19:15:39;;;;;;;5.45;1.80;;;;;;;8.16;68.96;99622.91;9784912;30;20103;-78
2021/12/16 19:21:00;;;;;;;3.08;1.60;;;;;;;8.11;68.96;99620.22;9804782;30;20045;-78
2021/12/16 19:26:21;;;;;;;4.00;1.70;;;;;;;8.11;69.00;99626.53;9791812;30;20055;-78
2021/12/16 19:31:42;;;;;;;2.72;1.48;;;;;;;8.05;68.84;99639.78;9791958;30;20049;-78
2021/12/16 19:37:03;;;;;;;3.08;1.30;;;;;;;7.92;68.96;99642.56;9791545;30;20075;-78
2021/12/16 19:42:24;;;;;;;2.88;1.50;;;;;;;7.85;69.02;99643.19;9791226;30;20052;-78
2021/12/16 19:47:46;;;;;;;3.15;1.88;;;;;;;7.70;69.04;99632.53;9791320;30;20059;-78
2021/12/16 19:53:07;;;;;;;4.85;3.03;;;;;;;7.45;68.88;99634.72;9790917;30;20071;-80
2021/12/16 19:58:28;;;;;;;4.45;2.90;;;;;;;7.15;68.97;99635.66;9790531;30;20110;-78
2021/12/16 20:04:18;;;;;;;5.07;2.65;;;;;;;6.89;69.23;99654.91;9802432;30;20087;-78
2021/12/16 20:09:40;;;;;;;4.97;2.72;;;;;;;6.63;69.44;99657.50;9777659;30;20044;-78
2021/12/16 20:40:40;;;;;;;10.32;6.47;;;;;;;5.89;69.78;99665.78;9807257;30;20072;-83
2021/12/16 20:46:05;;;;;;;8.27;5.95;;;;;;;5.81;70.21;99677.94;9762449;30;20037;-81
2021/12/16 20:51:32;;;;;;;8.13;5.15;;;;;;;5.70;70.35;99682.28;9751370;30;20037;-82
2021/12/16 20:56:57;;;;;;;8.20;5.57;;;;;;;5.64;70.52;99692.66;9776028;30;20060;-82
2021/12/16 21:02:25;;;;;;;8.57;5.75;;;;;;;5.59;70.41;99673.28;9778684;30;20035;-79
2021/12/16 21:07:47;;;;;;;7.25;4.82;;;;;;;5.55;70.61;99679.13;9725819;30;20138;-85
2021/12/16 22:35:14;;;;;;;11.15;6.80;;;;;;;4.80;70.61;99679.25;10756166;24;20056;-83
2021/12/16 22:40:39;;;;;;;11.93;6.95;;;;;;;4.78;70.38;99681.78;9859948;30;20091;-84
2021/12/16 22:46:01;;;;;;;9.18;6.43;;;;;;;4.76;70.18;99686.31;9847322;30;20095;-81
2021/12/16 22:51:23;;;;;;;10.60;6.65;;;;;;;4.70;70.37;99678.03;9834683;30;20040;-84
2021/12/16 22:57:03;;;;;;;9.90;5.50;;;;;;;4.66;70.51;99679.56;9862809;30;20055;-85
2021/12/16 23:02:29;;;;;;;9.80;6.15;;;;;;;4.63;70.54;99678.56;9834286;30;20048;-84
2021/12/16 23:07:51;;;;;;;8.68;5.70;;;;;;;4.63;70.09;99656.44;9847105;30;20028;-82
2021/12/16 23:13:13;;;;;;;13.07;6.15;;;;;;;4.61;69.90;99653.41;9845929;30;20050;-83
2021/12/16 23:24:16;;;;;;;10.85;7.00;;;;;;;4.57;70.19;99641.88;9850385;30;20064;-82
2021/12/16 23:29:38;;;;;;;11.25;7.78;;;;;;;4.50;70.18;99640.38;9858163;30;20091;-85
2021/12/16 23:35:00;;;;;;;11.90;8.00;;;;;;;4.48;70.22;99634.63;9846068;30;20083;-84
2021/12/16 23:40:24;;;;;;;13.45;8.93;;;;;;;4.43;70.27;99631.84;9845992;30;20048;-84
2021/12/16 23:46:06;;;;;;;14.37;9.07;;;;;;;4.34;70.57;99630.13;9846225;30;20067;-84
2021/12/16 23:57:09;;;;;;;14.02;8.35;;;;;;;4.21;70.64;99622.38;9862035;30;20032;-82
